createdAt,value
2022-09-09T00:04:30.989Z,1.10
2022-09-09T00:09:44.325Z,0.93
2022-09-09T00:14:54.492Z,0.80
2022-09-09T00:20:12.933Z,1.02
2022-09-09T00:25:29.341Z,1.30
2022-09-09T00:30:35.936Z,1.48
2022-09-09T00:35:42.053Z,1.10
2022-09-09T00:40:54.068Z,1.35
2022-09-09T00:45:58.626Z,1.45
2022-09-09T00:51:14.464Z,1.95
2022-09-09T00:56:21.124Z,1.77
2022-09-09T01:06:34.766Z,1.63
2022-09-09T01:11:54.932Z,1.55
2022-09-09T01:17:00.687Z,0.70
2022-09-09T01:22:11.282Z,1.30
2022-09-09T01:27:16.263Z,1.00
2022-09-09T01:32:42.562Z,1.25
2022-09-09T01:42:47.106Z,0.88
2022-09-09T01:47:49.227Z,1.55
2022-09-09T01:53:03.571Z,2.08
2022-09-09T02:03:33.514Z,0.98
2022-09-09T02:08:49.214Z,1.27
2022-09-09T02:14:11.360Z,1.25
2022-09-09T02:19:20.983Z,1.48
2022-09-09T02:24:45.169Z,1.40
2022-09-09T02:30:00.095Z,1.50
2022-09-09T02:35:18.379Z,1.30
2022-09-09T02:40:20.620Z,1.10
2022-09-09T02:45:35.721Z,1.48
2022-09-09T02:50:55.864Z,1.60
2022-09-09T02:56:06.641Z,1.17
2022-09-09T03:01:11.745Z,1.10
2022-09-09T03:06:13.828Z,1.30
2022-09-09T03:11:15.457Z,2.05
2022-09-09T03:16:17.776Z,1.02
2022-09-09T03:21:23.296Z,1.42
2022-09-09T03:26:25.531Z,1.38
2022-09-09T03:31:28.189Z,1.52
2022-09-09T03:36:30.100Z,1.73
2022-09-09T03:41:31.857Z,1.10
2022-09-09T03:46:35.688Z,1.10
2022-09-09T03:51:37.880Z,1.25
2022-09-09T03:56:41.125Z,1.55
2022-09-09T04:01:44.000Z,1.08
2022-09-09T04:06:45.708Z,1.13
2022-09-09T04:11:47.588Z,1.45
2022-09-09T04:16:50.315Z,1.83
2022-09-09T04:21:52.418Z,1.00
2022-09-09T04:26:56.671Z,1.00
2022-09-09T04:31:58.553Z,1.10
2022-09-09T04:37:00.560Z,1.60
2022-09-09T04:42:02.923Z,1.33
2022-09-09T04:47:04.803Z,1.80
2022-09-09T04:52:07.729Z,1.30
2022-09-09T04:57:15.227Z,1.20
2022-09-09T05:02:20.321Z,2.55
2022-09-09T05:07:29.018Z,1.65
2022-09-09T05:12:30.828Z,1.20
2022-09-09T05:17:33.990Z,1.42
2022-09-09T05:22:36.173Z,1.75
2022-09-09T05:27:38.316Z,1.10
2022-09-09T05:32:40.246Z,1.60
2022-09-09T05:37:41.914Z,1.35
2022-09-09T05:42:43.981Z,1.00
2022-09-09T05:47:45.712Z,1.52
2022-09-09T05:52:55.637Z,1.30
2022-09-09T05:57:57.264Z,1.42
2022-09-09T06:03:00.863Z,1.10
2022-09-09T06:08:02.768Z,1.10
2022-09-09T06:13:04.645Z,1.23
2022-09-09T06:18:06.743Z,1.05
2022-09-09T06:23:10.208Z,1.90
2022-09-09T06:28:12.190Z,1.80
2022-09-09T06:33:13.882Z,1.38
2022-09-09T06:38:15.788Z,1.08
2022-09-09T06:43:18.048Z,1.05
2022-09-09T06:48:24.963Z,0.80
2022-09-09T06:53:26.753Z,1.30
2022-09-09T06:58:29.248Z,1.00
2022-09-09T07:03:35.127Z,1.00
2022-09-09T07:08:37.088Z,0.90
2022-09-09T07:13:38.987Z,1.08
2022-09-09T07:18:42.709Z,1.70
2022-09-09T07:23:44.464Z,1.33
2022-09-09T07:28:47.084Z,0.70
2022-09-09T07:33:49.709Z,1.20
2022-09-09T07:38:54.441Z,1.00
2022-09-09T07:43:56.210Z,1.40
2022-09-09T07:48:59.045Z,1.00
2022-09-09T07:54:07.540Z,1.73
2022-09-09T07:59:10.814Z,0.88
2022-09-09T08:04:17.503Z,1.08
2022-09-09T08:09:21.274Z,1.60
2022-09-09T08:14:24.808Z,1.13
2022-09-09T08:19:26.751Z,1.10
2022-09-09T08:24:28.866Z,1.30
2022-09-09T08:29:30.662Z,1.13
2022-09-09T08:34:33.129Z,1.23
2022-09-09T08:39:39.153Z,1.00
2022-09-09T08:44:56.044Z,0.70
2022-09-09T08:50:38.470Z,1.20
2022-09-09T09:01:09.568Z,0.80
2022-09-09T09:06:30.534Z,1.15
2022-09-09T09:11:38.902Z,1.33
2022-09-09T09:17:02.523Z,0.70
2022-09-09T09:22:20.897Z,1.05
2022-09-09T09:27:33.245Z,1.20
2022-09-09T09:32:37.075Z,0.93
2022-09-09T09:43:04.495Z,1.30
2022-09-09T09:48:14.038Z,0.70
2022-09-09T09:53:24.420Z,1.05
2022-09-09T09:58:30.791Z,0.65
2022-09-09T10:08:46.254Z,1.48
2022-09-09T10:14:25.864Z,0.82
2022-09-09T10:19:35.924Z,0.70
2022-09-09T10:24:45.917Z,1.15
2022-09-09T10:30:12.128Z,1.10
2022-09-09T10:35:39.100Z,0.63
2022-09-09T10:40:55.737Z,0.50
2022-09-09T10:46:12.678Z,1.20
2022-09-09T10:51:23.021Z,1.48
2022-09-09T10:56:25.500Z,0.73
2022-09-09T11:01:32.201Z,1.15
2022-09-09T11:06:42.755Z,0.70
2022-09-09T11:11:53.652Z,0.80
2022-09-09T11:17:01.489Z,0.85
2022-09-09T11:22:08.971Z,1.33
2022-09-09T11:27:45.043Z,0.47
2022-09-09T11:33:04.853Z,0.98
2022-09-09T11:38:48.153Z,0.70
2022-09-09T11:43:52.663Z,0.75
2022-09-09T11:49:03.095Z,0.80
2022-09-09T11:54:23.562Z,0.77
2022-09-09T11:59:33.443Z,1.20
2022-09-09T12:04:40.632Z,1.23
2022-09-09T12:09:47.872Z,0.75
2022-09-09T12:15:18.579Z,0.75
2022-09-09T12:20:32.384Z,0.80
2022-09-09T12:25:53.255Z,1.73
2022-09-09T12:30:56.111Z,0.82
2022-09-09T12:35:59.909Z,0.93
2022-09-09T12:41:01.645Z,1.10
2022-09-09T12:46:09.455Z,0.73
2022-09-09T12:51:27.292Z,0.80
2022-09-09T12:56:33.348Z,0.60
2022-09-09T13:01:35.149Z,0.60
2022-09-09T13:06:37.052Z,0.60
2022-09-09T13:11:45.897Z,0.70
2022-09-09T13:16:59.697Z,0.82
2022-09-09T13:22:12.114Z,0.82
2022-09-09T13:27:32.977Z,0.40
2022-09-09T13:32:34.566Z,0.93
2022-09-09T13:37:39.030Z,0.40
2022-09-09T13:42:42.856Z,0.93
2022-09-09T13:47:44.510Z,0.65
2022-09-09T13:52:46.345Z,0.90
2022-09-09T13:57:58.011Z,0.50
2022-09-09T14:03:00.092Z,1.02
2022-09-09T14:08:04.148Z,0.50
2022-09-09T14:13:06.782Z,1.05
2022-09-09T14:18:12.483Z,0.40
2022-09-09T14:23:14.038Z,0.50
2022-09-09T14:28:15.854Z,0.63
2022-09-09T14:33:17.888Z,0.30
2022-09-09T14:38:19.395Z,0.40
2022-09-09T14:43:21.165Z,0.30
2022-09-09T14:48:22.762Z,0.40
2022-09-09T14:53:24.410Z,0.50
2022-09-09T14:58:28.325Z,0.90
2022-09-09T15:08:33.599Z,1.10
2022-09-09T15:13:36.248Z,1.00
2022-09-09T15:18:38.322Z,1.15
2022-09-09T15:23:40.766Z,1.08
2022-09-09T15:28:43.877Z,0.90
2022-09-09T15:33:57.077Z,1.30
2022-09-09T15:38:59.933Z,1.38
2022-09-09T15:44:02.640Z,1.08
2022-09-09T15:49:04.311Z,0.45
2022-09-09T15:54:06.256Z,0.63
2022-09-09T15:59:08.566Z,0.30
2022-09-09T16:04:11.022Z,0.60
2022-09-09T16:09:12.770Z,0.55
2022-09-09T16:14:15.559Z,0.60
2022-09-09T16:19:18.248Z,0.75
2022-09-09T16:24:21.937Z,1.00
2022-09-09T16:29:24.388Z,1.48
2022-09-09T16:34:26.042Z,1.17
2022-09-09T16:39:27.535Z,1.02
2022-09-09T16:44:29.173Z,1.20
2022-09-09T16:49:30.702Z,0.80
2022-09-09T16:54:32.834Z,1.50
2022-09-09T16:59:34.668Z,1.10
2022-09-09T17:04:36.729Z,1.13
2022-09-09T17:09:41.492Z,1.00
2022-09-09T17:14:43.529Z,1.50
2022-09-09T17:19:45.214Z,1.63
2022-09-09T17:24:48.194Z,1.35
2022-09-09T17:29:49.894Z,1.42
2022-09-09T17:34:51.479Z,1.73
2022-09-09T17:39:53.177Z,1.40
2022-09-09T17:44:55.019Z,1.23
2022-09-09T17:49:56.556Z,1.52
2022-09-09T17:54:58.080Z,1.52
2022-09-09T17:59:59.567Z,1.60
2022-09-09T18:05:01.087Z,2.35
2022-09-09T18:10:02.778Z,1.50
2022-09-09T18:15:04.962Z,1.77
2022-09-09T18:20:06.892Z,2.17
2022-09-09T18:25:08.514Z,1.55
2022-09-09T18:30:10.544Z,1.40
2022-09-09T18:35:12.151Z,1.33
2022-09-09T18:40:14.025Z,1.35
2022-09-09T18:45:15.923Z,1.58
2022-09-09T18:50:17.542Z,1.05
2022-09-09T18:55:19.472Z,1.20
2022-09-09T19:00:21.006Z,1.30
2022-09-09T19:05:22.583Z,1.08
2022-09-09T19:10:24.245Z,1.13
2022-09-09T19:15:25.751Z,1.10
2022-09-09T19:20:27.764Z,1.20
2022-09-09T19:25:29.292Z,2.13
2022-09-09T19:30:30.857Z,1.00
2022-09-09T19:35:32.563Z,1.30
2022-09-09T19:40:35.993Z,1.17
2022-09-09T19:45:37.575Z,1.27
2022-09-09T19:50:39.233Z,1.83
2022-09-09T19:55:40.737Z,1.17
2022-09-09T20:00:42.498Z,1.60
2022-09-09T20:05:44.085Z,1.75
2022-09-09T20:10:53.250Z,1.50
2022-09-09T20:16:10.496Z,1.65
2022-09-09T20:21:14.866Z,2.10
2022-09-09T20:26:19.364Z,2.15
2022-09-09T20:31:23.806Z,1.65
2022-09-09T20:36:31.290Z,2.20
2022-09-09T20:41:34.209Z,2.38
2022-09-09T20:46:37.762Z,1.90
2022-09-09T20:51:40.227Z,1.90
2022-09-09T20:56:43.590Z,2.03
2022-09-09T21:01:45.739Z,2.40
2022-09-09T21:06:48.755Z,2.35
2022-09-09T21:11:51.660Z,2.58
2022-09-09T21:16:53.408Z,2.95
2022-09-09T21:21:54.970Z,2.42
2022-09-09T21:26:56.701Z,2.20
2022-09-09T21:31:58.295Z,2.50
2022-09-09T21:36:59.837Z,2.90
2022-09-09T21:42:01.409Z,2.17
2022-09-09T21:47:03.053Z,1.90
2022-09-09T21:52:04.686Z,1.48
2022-09-09T21:57:06.309Z,1.80
2022-09-09T22:02:08.361Z,1.40
2022-09-09T22:07:10.024Z,1.73
2022-09-09T22:12:12.027Z,1.73
2022-09-09T22:17:14.684Z,1.75
2022-09-09T22:22:16.295Z,1.80
2022-09-09T22:27:18.084Z,2.25
2022-09-09T22:32:19.602Z,1.60
2022-09-09T22:37:21.102Z,1.67
2022-09-09T22:42:22.662Z,1.90
2022-09-09T22:47:24.213Z,1.90
2022-09-09T22:52:25.721Z,2.35
2022-09-09T22:57:27.783Z,1.77
2022-09-09T23:02:29.321Z,2.15
2022-09-09T23:07:30.985Z,2.70
2022-09-09T23:12:33.469Z,2.33
2022-09-09T23:17:35.001Z,2.20
2022-09-09T23:22:37.781Z,2.15
2022-09-09T23:27:39.381Z,1.70
2022-09-09T23:32:40.958Z,2.38
2022-09-09T23:37:42.477Z,1.92
2022-09-09T23:42:44.092Z,2.25
2022-09-09T23:47:45.659Z,2.00
2022-09-09T23:52:47.368Z,2.25
2022-09-09T23:57:49.205Z,2.40
